sensor_id;sensor_type;location;lat;lon;timestamp;P1;durP1;ratioP1;P2;durP2;ratioP2
45762;SDS011;37512;52.408;13.356;2023-04-24T00:02:29;6.53;;;4.60;;
45762;SDS011;37512;52.408;13.356;2023-04-24T00:06:31;5.85;;;4.38;;
45762;SDS011;37512;52.408;13.356;2023-04-24T00:10:35;6.50;;;4.60;;
45762;SDS011;37512;52.408;13.356;2023-04-24T00:14:37;6.18;;;4.88;;
45762;SDS011;37512;52.408;13.356;2023-04-24T00:18:39;5.93;;;4.40;;
45762;SDS011;37512;52.408;13.356;2023-04-24T00:22:40;8.30;;;5.25;;
45762;SDS011;37512;52.408;13.356;2023-04-24T00:26:42;6.25;;;4.85;;
45762;SDS011;37512;52.408;13.356;2023-04-24T00:30:44;5.50;;;4.60;;
45762;SDS011;37512;52.408;13.356;2023-04-24T00:34:45;11.18;;;5.22;;
45762;SDS011;37512;52.408;13.356;2023-04-24T00:38:47;6.68;;;5.32;;
45762;SDS011;37512;52.408;13.356;2023-04-24T00:42:48;7.97;;;5.65;;
45762;SDS011;37512;52.408;13.356;2023-04-24T00:46:50;6.38;;;4.80;;
45762;SDS011;37512;52.408;13.356;2023-04-24T00:50:55;13.32;;;5.60;;
45762;SDS011;37512;52.408;13.356;2023-04-24T00:54:56;5.85;;;5.05;;
45762;SDS011;37512;52.408;13.356;2023-04-24T00:58:58;6.18;;;5.00;;
45762;SDS011;37512;52.408;13.356;2023-04-24T01:03:00;6.22;;;4.95;;
45762;SDS011;37512;52.408;13.356;2023-04-24T01:07:06;6.70;;;5.18;;
45762;SDS011;37512;52.408;13.356;2023-04-24T01:11:11;6.13;;;4.85;;
45762;SDS011;37512;52.408;13.356;2023-04-24T01:15:13;6.15;;;4.82;;
45762;SDS011;37512;52.408;13.356;2023-04-24T01:19:14;6.78;;;5.50;;
45762;SDS011;37512;52.408;13.356;2023-04-24T01:23:17;8.88;;;5.38;;
45762;SDS011;37512;52.408;13.356;2023-04-24T01:27:18;6.28;;;4.95;;
45762;SDS011;37512;52.408;13.356;2023-04-24T01:31:20;6.53;;;4.88;;
45762;SDS011;37512;52.408;13.356;2023-04-24T01:35:22;5.68;;;4.72;;
45762;SDS011;37512;52.408;13.356;2023-04-24T01:39:24;6.57;;;5.15;;
45762;SDS011;37512;52.408;13.356;2023-04-24T01:43:26;6.40;;;5.10;;
45762;SDS011;37512;52.408;13.356;2023-04-24T01:47:28;11.60;;;5.85;;
45762;SDS011;37512;52.408;13.356;2023-04-24T01:51:31;9.98;;;5.60;;
45762;SDS011;37512;52.408;13.356;2023-04-24T01:55:32;8.27;;;5.68;;
45762;SDS011;37512;52.408;13.356;2023-04-24T01:59:34;8.02;;;4.93;;
45762;SDS011;37512;52.408;13.356;2023-04-24T02:03:37;7.50;;;4.45;;
45762;SDS011;37512;52.408;13.356;2023-04-24T02:07:39;6.15;;;5.30;;
45762;SDS011;37512;52.408;13.356;2023-04-24T02:11:41;5.85;;;5.03;;
45762;SDS011;37512;52.408;13.356;2023-04-24T02:15:42;5.55;;;4.45;;
45762;SDS011;37512;52.408;13.356;2023-04-24T02:19:43;5.53;;;4.72;;
45762;SDS011;37512;52.408;13.356;2023-04-24T02:23:45;6.20;;;5.60;;
45762;SDS011;37512;52.408;13.356;2023-04-24T02:27:47;8.30;;;4.80;;
45762;SDS011;37512;52.408;13.356;2023-04-24T02:31:48;6.07;;;4.72;;
45762;SDS011;37512;52.408;13.356;2023-04-24T02:35:50;6.00;;;5.30;;
45762;SDS011;37512;52.408;13.356;2023-04-24T02:39:51;7.13;;;5.53;;
45762;SDS011;37512;52.408;13.356;2023-04-24T02:43:53;7.80;;;5.60;;
45762;SDS011;37512;52.408;13.356;2023-04-24T02:47:54;7.13;;;4.78;;
45762;SDS011;37512;52.408;13.356;2023-04-24T02:51:56;6.47;;;5.05;;
45762;SDS011;37512;52.408;13.356;2023-04-24T02:55:57;8.07;;;5.32;;
45762;SDS011;37512;52.408;13.356;2023-04-24T02:59:59;6.43;;;5.25;;
45762;SDS011;37512;52.408;13.356;2023-04-24T03:04:01;6.65;;;5.18;;
45762;SDS011;37512;52.408;13.356;2023-04-24T03:08:03;7.18;;;5.97;;
45762;SDS011;37512;52.408;13.356;2023-04-24T03:12:05;6.93;;;5.80;;
45762;SDS011;37512;52.408;13.356;2023-04-24T03:16:06;6.65;;;5.25;;
45762;SDS011;37512;52.408;13.356;2023-04-24T03:20:08;6.65;;;5.00;;
45762;SDS011;37512;52.408;13.356;2023-04-24T03:24:10;6.65;;;5.90;;
45762;SDS011;37512;52.408;13.356;2023-04-24T03:28:11;9.35;;;5.80;;
45762;SDS011;37512;52.408;13.356;2023-04-24T03:32:13;7.70;;;5.88;;
45762;SDS011;37512;52.408;13.356;2023-04-24T03:36:14;6.72;;;5.65;;
45762;SDS011;37512;52.408;13.356;2023-04-24T03:40:16;6.82;;;5.47;;
45762;SDS011;37512;52.408;13.356;2023-04-24T03:44:17;9.50;;;5.90;;
45762;SDS011;37512;52.408;13.356;2023-04-24T03:48:19;8.02;;;5.32;;
45762;SDS011;37512;52.408;13.356;2023-04-24T03:52:20;8.60;;;5.53;;
45762;SDS011;37512;52.408;13.356;2023-04-24T03:56:21;7.07;;;5.63;;
45762;SDS011;37512;52.408;13.356;2023-04-24T04:00:23;7.30;;;6.15;;
45762;SDS011;37512;52.408;13.356;2023-04-24T04:04:25;8.57;;;5.80;;
45762;SDS011;37512;52.408;13.356;2023-04-24T04:08:26;14.75;;;5.65;;
45762;SDS011;37512;52.408;13.356;2023-04-24T04:12:28;7.95;;;5.95;;
45762;SDS011;37512;52.408;13.356;2023-04-24T04:16:29;8.18;;;6.13;;
45762;SDS011;37512;52.408;13.356;2023-04-24T04:20:31;6.60;;;5.32;;
45762;SDS011;37512;52.408;13.356;2023-04-24T04:24:32;6.25;;;4.88;;
45762;SDS011;37512;52.408;13.356;2023-04-24T04:28:34;7.07;;;5.93;;
45762;SDS011;37512;52.408;13.356;2023-04-24T04:32:35;8.02;;;5.20;;
45762;SDS011;37512;52.408;13.356;2023-04-24T04:36:38;7.85;;;4.95;;
45762;SDS011;37512;52.408;13.356;2023-04-24T04:40:41;6.05;;;5.07;;
45762;SDS011;37512;52.408;13.356;2023-04-24T04:44:42;7.18;;;4.68;;
45762;SDS011;37512;52.408;13.356;2023-04-24T04:48:45;9.25;;;4.57;;
45762;SDS011;37512;52.408;13.356;2023-04-24T04:52:47;7.68;;;4.28;;
45762;SDS011;37512;52.408;13.356;2023-04-24T04:56:51;6.93;;;4.85;;
45762;SDS011;37512;52.408;13.356;2023-04-24T05:00:53;7.13;;;5.15;;
45762;SDS011;37512;52.408;13.356;2023-04-24T05:04:54;6.28;;;4.18;;
45762;SDS011;37512;52.408;13.356;2023-04-24T05:08:56;5.95;;;3.92;;
45762;SDS011;37512;52.408;13.356;2023-04-24T05:12:58;4.97;;;3.97;;
45762;SDS011;37512;52.408;13.356;2023-04-24T05:17:00;5.78;;;3.80;;
45762;SDS011;37512;52.408;13.356;2023-04-24T05:21:02;5.57;;;3.80;;
45762;SDS011;37512;52.408;13.356;2023-04-24T05:25:04;6.53;;;3.92;;
45762;SDS011;37512;52.408;13.356;2023-04-24T05:29:06;5.88;;;3.90;;
45762;SDS011;37512;52.408;13.356;2023-04-24T05:33:08;5.95;;;3.30;;
45762;SDS011;37512;52.408;13.356;2023-04-24T05:37:11;3.67;;;2.80;;
45762;SDS011;37512;52.408;13.356;2023-04-24T05:41:12;2.45;;;2.08;;
45762;SDS011;37512;52.408;13.356;2023-04-24T05:45:14;4.07;;;2.63;;
45762;SDS011;37512;52.408;13.356;2023-04-24T05:49:17;2.80;;;2.30;;
45762;SDS011;37512;52.408;13.356;2023-04-24T05:53:19;4.43;;;2.20;;
45762;SDS011;37512;52.408;13.356;2023-04-24T05:57:20;3.45;;;2.53;;
45762;SDS011;37512;52.408;13.356;2023-04-24T06:01:22;2.47;;;1.75;;
45762;SDS011;37512;52.408;13.356;2023-04-24T06:05:24;4.28;;;2.10;;
45762;SDS011;37512;52.408;13.356;2023-04-24T06:09:26;2.33;;;1.70;;
45762;SDS011;37512;52.408;13.356;2023-04-24T06:13:27;2.50;;;1.67;;
45762;SDS011;37512;52.408;13.356;2023-04-24T06:17:29;3.17;;;1.67;;
45762;SDS011;37512;52.408;13.356;2023-04-24T06:21:32;2.70;;;1.77;;
45762;SDS011;37512;52.408;13.356;2023-04-24T06:25:34;2.90;;;1.60;;
45762;SDS011;37512;52.408;13.356;2023-04-24T06:29:35;2.58;;;1.70;;
45762;SDS011;37512;52.408;13.356;2023-04-24T06:33:37;1.80;;;1.30;;
45762;SDS011;37512;52.408;13.356;2023-04-24T06:37:39;7.88;;;1.55;;
45762;SDS011;37512;52.408;13.356;2023-04-24T06:41:42;2.13;;;1.30;;
45762;SDS011;37512;52.408;13.356;2023-04-24T06:45:43;1.73;;;1.05;;
45762;SDS011;37512;52.408;13.356;2023-04-24T06:49:46;3.22;;;2.10;;
45762;SDS011;37512;52.408;13.356;2023-04-24T06:53:47;2.28;;;1.10;;
45762;SDS011;37512;52.408;13.356;2023-04-24T06:57:49;3.38;;;1.35;;
45762;SDS011;37512;52.408;13.356;2023-04-24T07:01:51;1.45;;;1.10;;
45762;SDS011;37512;52.408;13.356;2023-04-24T07:05:55;4.13;;;1.75;;
45762;SDS011;37512;52.408;13.356;2023-04-24T07:09:57;2.50;;;1.23;;
45762;SDS011;37512;52.408;13.356;2023-04-24T07:13:59;3.80;;;1.13;;
45762;SDS011;37512;52.408;13.356;2023-04-24T07:18:01;2.00;;;1.27;;
45762;SDS011;37512;52.408;13.356;2023-04-24T07:22:06;2.60;;;1.20;;
45762;SDS011;37512;52.408;13.356;2023-04-24T07:26:07;2.33;;;0.93;;
45762;SDS011;37512;52.408;13.356;2023-04-24T07:30:09;1.00;;;0.80;;
45762;SDS011;37512;52.408;13.356;2023-04-24T07:34:11;1.55;;;0.98;;
45762;SDS011;37512;52.408;13.356;2023-04-24T07:38:12;2.30;;;1.38;;
45762;SDS011;37512;52.408;13.356;2023-04-24T07:42:14;2.45;;;1.10;;
45762;SDS011;37512;52.408;13.356;2023-04-24T07:46:15;1.50;;;0.95;;
45762;SDS011;37512;52.408;13.356;2023-04-24T07:50:17;4.18;;;2.17;;
45762;SDS011;37512;52.408;13.356;2023-04-24T07:54:19;1.67;;;0.95;;
45762;SDS011;37512;52.408;13.356;2023-04-24T07:58:20;1.27;;;0.90;;
45762;SDS011;37512;52.408;13.356;2023-04-24T08:02:22;3.80;;;1.17;;
45762;SDS011;37512;52.408;13.356;2023-04-24T08:06:27;3.55;;;0.88;;
45762;SDS011;37512;52.408;13.356;2023-04-24T08:10:31;1.10;;;0.77;;
45762;SDS011;37512;52.408;13.356;2023-04-24T08:14:33;3.08;;;0.95;;
45762;SDS011;37512;52.408;13.356;2023-04-24T08:18:34;2.53;;;0.85;;
45762;SDS011;37512;52.408;13.356;2023-04-24T08:22:37;0.80;;;0.60;;
45762;SDS011;37512;52.408;13.356;2023-04-24T08:26:39;0.70;;;0.52;;
45762;SDS011;37512;52.408;13.356;2023-04-24T08:30:40;1.35;;;0.82;;
45762;SDS011;37512;52.408;13.356;2023-04-24T08:34:42;1.20;;;0.50;;
45762;SDS011;37512;52.408;13.356;2023-04-24T08:38:43;0.85;;;0.68;;
45762;SDS011;37512;52.408;13.356;2023-04-24T08:42:47;1.50;;;0.90;;
45762;SDS011;37512;52.408;13.356;2023-04-24T08:46:52;1.90;;;0.60;;
45762;SDS011;37512;52.408;13.356;2023-04-24T08:50:55;0.90;;;0.70;;
45762;SDS011;37512;52.408;13.356;2023-04-24T08:54:58;3.15;;;1.15;;
45762;SDS011;37512;52.408;13.356;2023-04-24T08:59:01;3.55;;;1.40;;
45762;SDS011;37512;52.408;13.356;2023-04-24T09:03:03;2.03;;;0.73;;
45762;SDS011;37512;52.408;13.356;2023-04-24T09:07:07;0.95;;;0.70;;
45762;SDS011;37512;52.408;13.356;2023-04-24T09:11:11;2.78;;;0.80;;
45762;SDS011;37512;52.408;13.356;2023-04-24T09:15:13;2.03;;;0.75;;
45762;SDS011;37512;52.408;13.356;2023-04-24T09:19:15;6.05;;;0.90;;
45762;SDS011;37512;52.408;13.356;2023-04-24T09:23:19;2.28;;;1.00;;
45762;SDS011;37512;52.408;13.356;2023-04-24T09:27:22;2.17;;;0.80;;
45762;SDS011;37512;52.408;13.356;2023-04-24T09:31:26;2.28;;;1.00;;
45762;SDS011;37512;52.408;13.356;2023-04-24T09:35:28;2.15;;;0.90;;
45762;SDS011;37512;52.408;13.356;2023-04-24T09:39:30;1.88;;;0.90;;
45762;SDS011;37512;52.408;13.356;2023-04-24T09:43:31;2.40;;;0.63;;
45762;SDS011;37512;52.408;13.356;2023-04-24T09:47:40;4.68;;;1.05;;
45762;SDS011;37512;52.408;13.356;2023-04-24T09:51:42;3.60;;;0.90;;
45762;SDS011;37512;52.408;13.356;2023-04-24T09:55:44;7.18;;;1.50;;
45762;SDS011;37512;52.408;13.356;2023-04-24T09:59:47;2.00;;;0.77;;
45762;SDS011;37512;52.408;13.356;2023-04-24T10:03:48;1.50;;;0.77;;
45762;SDS011;37512;52.408;13.356;2023-04-24T10:07:50;3.85;;;0.88;;
45762;SDS011;37512;52.408;13.356;2023-04-24T10:11:53;1.08;;;0.70;;
45762;SDS011;37512;52.408;13.356;2023-04-24T10:15:56;1.08;;;0.73;;
45762;SDS011;37512;52.408;13.356;2023-04-24T10:20:01;1.10;;;0.75;;
45762;SDS011;37512;52.408;13.356;2023-04-24T10:24:04;1.77;;;0.80;;
45762;SDS011;37512;52.408;13.356;2023-04-24T10:28:08;0.47;;;0.47;;
45762;SDS011;37512;52.408;13.356;2023-04-24T10:32:11;1.92;;;0.80;;
45762;SDS011;37512;52.408;13.356;2023-04-24T10:36:13;1.27;;;0.82;;
45762;SDS011;37512;52.408;13.356;2023-04-24T10:40:17;1.98;;;1.15;;
45762;SDS011;37512;52.408;13.356;2023-04-24T10:44:20;1.60;;;0.80;;
45762;SDS011;37512;52.408;13.356;2023-04-24T10:48:26;1.27;;;0.80;;
45762;SDS011;37512;52.408;13.356;2023-04-24T10:52:43;1.92;;;1.00;;
45762;SDS011;37512;52.408;13.356;2023-04-24T10:56:46;0.88;;;0.80;;
45762;SDS011;37512;52.408;13.356;2023-04-24T11:00:55;2.25;;;0.80;;
45762;SDS011;37512;52.408;13.356;2023-04-24T11:05:02;1.27;;;0.85;;
45762;SDS011;37512;52.408;13.356;2023-04-24T11:09:06;1.75;;;0.82;;
45762;SDS011;37512;52.408;13.356;2023-04-24T11:13:09;1.40;;;0.90;;
45762;SDS011;37512;52.408;13.356;2023-04-24T11:17:26;2.33;;;0.95;;
45762;SDS011;37512;52.408;13.356;2023-04-24T11:21:40;1.45;;;0.95;;
45762;SDS011;37512;52.408;13.356;2023-04-24T11:25:44;4.00;;;1.80;;
45762;SDS011;37512;52.408;13.356;2023-04-24T11:34:05;3.83;;;2.50;;
45762;SDS011;37512;52.408;13.356;2023-04-24T11:38:10;1.58;;;1.48;;
45762;SDS011;37512;52.408;13.356;2023-04-24T11:42:24;1.73;;;1.42;;
45762;SDS011;37512;52.408;13.356;2023-04-24T11:46:27;2.13;;;1.23;;
45762;SDS011;37512;52.408;13.356;2023-04-24T11:50:31;4.13;;;1.30;;
45762;SDS011;37512;52.408;13.356;2023-04-24T11:54:32;2.97;;;1.10;;
45762;SDS011;37512;52.408;13.356;2023-04-24T11:58:34;2.60;;;1.40;;
45762;SDS011;37512;52.408;13.356;2023-04-24T12:02:37;1.10;;;1.00;;
45762;SDS011;37512;52.408;13.356;2023-04-24T12:06:42;2.03;;;1.25;;
45762;SDS011;37512;52.408;13.356;2023-04-24T12:11:05;1.27;;;0.90;;
45762;SDS011;37512;52.408;13.356;2023-04-24T12:15:08;1.88;;;0.90;;
45762;SDS011;37512;52.408;13.356;2023-04-24T12:19:10;1.45;;;0.95;;
45762;SDS011;37512;52.408;13.356;2023-04-24T12:23:12;1.15;;;0.70;;
45762;SDS011;37512;52.408;13.356;2023-04-24T12:27:19;1.35;;;0.80;;
45762;SDS011;37512;52.408;13.356;2023-04-24T12:31:21;2.00;;;0.68;;
45762;SDS011;37512;52.408;13.356;2023-04-24T12:35:24;4.10;;;2.15;;
45762;SDS011;37512;52.408;13.356;2023-04-24T12:39:27;1.02;;;0.55;;
45762;SDS011;37512;52.408;13.356;2023-04-24T12:43:29;0.82;;;0.60;;
45762;SDS011;37512;52.408;13.356;2023-04-24T12:47:31;0.80;;;0.63;;
45762;SDS011;37512;52.408;13.356;2023-04-24T12:51:34;5.00;;;2.28;;
45762;SDS011;37512;52.408;13.356;2023-04-24T12:55:36;0.80;;;0.60;;
45762;SDS011;37512;52.408;13.356;2023-04-24T12:59:38;0.60;;;0.50;;
45762;SDS011;37512;52.408;13.356;2023-04-24T13:03:40;1.40;;;0.82;;
45762;SDS011;37512;52.408;13.356;2023-04-24T13:07:42;1.10;;;0.70;;
45762;SDS011;37512;52.408;13.356;2023-04-24T13:11:44;0.95;;;0.77;;
45762;SDS011;37512;52.408;13.356;2023-04-24T13:15:45;1.67;;;0.60;;
45762;SDS011;37512;52.408;13.356;2023-04-24T13:19:49;0.40;;;0.40;;
45762;SDS011;37512;52.408;13.356;2023-04-24T13:23:52;1.13;;;0.60;;
45762;SDS011;37512;52.408;13.356;2023-04-24T13:27:53;4.75;;;0.60;;
45762;SDS011;37512;52.408;13.356;2023-04-24T13:31:55;1.00;;;0.80;;
45762;SDS011;37512;52.408;13.356;2023-04-24T13:35:57;5.35;;;1.13;;
45762;SDS011;37512;52.408;13.356;2023-04-24T13:39:58;1.23;;;0.63;;
45762;SDS011;37512;52.408;13.356;2023-04-24T13:44:00;0.77;;;0.50;;
45762;SDS011;37512;52.408;13.356;2023-04-24T13:48:02;0.82;;;0.70;;
45762;SDS011;37512;52.408;13.356;2023-04-24T13:52:04;1.40;;;0.80;;
45762;SDS011;37512;52.408;13.356;2023-04-24T13:56:06;0.85;;;0.60;;
45762;SDS011;37512;52.408;13.356;2023-04-24T14:00:07;4.57;;;0.80;;
45762;SDS011;37512;52.408;13.356;2023-04-24T14:04:11;0.55;;;0.47;;
45762;SDS011;37512;52.408;13.356;2023-04-24T14:08:13;2.70;;;1.02;;
45762;SDS011;37512;52.408;13.356;2023-04-24T14:12:16;3.15;;;0.60;;
45762;SDS011;37512;52.408;13.356;2023-04-24T14:16:20;1.92;;;0.88;;
45762;SDS011;37512;52.408;13.356;2023-04-24T14:20:22;0.70;;;0.50;;
45762;SDS011;37512;52.408;13.356;2023-04-24T14:24:24;1.10;;;0.80;;
45762;SDS011;37512;52.408;13.356;2023-04-24T14:28:25;1.85;;;0.50;;
45762;SDS011;37512;52.408;13.356;2023-04-24T14:32:27;1.80;;;0.70;;
45762;SDS011;37512;52.408;13.356;2023-04-24T14:36:29;1.00;;;0.70;;
45762;SDS011;37512;52.408;13.356;2023-04-24T14:40:32;1.17;;;0.80;;
45762;SDS011;37512;52.408;13.356;2023-04-24T14:44:54;1.10;;;0.60;;
45762;SDS011;37512;52.408;13.356;2023-04-24T14:48:58;1.05;;;0.80;;
45762;SDS011;37512;52.408;13.356;2023-04-24T14:53:00;1.30;;;0.82;;
45762;SDS011;37512;52.408;13.356;2023-04-24T14:57:03;1.13;;;0.90;;
45762;SDS011;37512;52.408;13.356;2023-04-24T15:01:04;0.93;;;0.75;;
45762;SDS011;37512;52.408;13.356;2023-04-24T15:05:06;1.40;;;0.95;;
45762;SDS011;37512;52.408;13.356;2023-04-24T15:09:09;1.60;;;1.15;;
45762;SDS011;37512;52.408;13.356;2023-04-24T15:13:10;2.63;;;1.00;;
45762;SDS011;37512;52.408;13.356;2023-04-24T15:17:12;2.03;;;1.00;;
45762;SDS011;37512;52.408;13.356;2023-04-24T15:21:13;1.48;;;0.82;;
45762;SDS011;37512;52.408;13.356;2023-04-24T15:25:15;1.83;;;0.90;;
45762;SDS011;37512;52.408;13.356;2023-04-24T15:29:16;1.50;;;0.90;;
45762;SDS011;37512;52.408;13.356;2023-04-24T15:33:18;1.77;;;1.10;;
45762;SDS011;37512;52.408;13.356;2023-04-24T15:37:20;2.03;;;1.10;;
45762;SDS011;37512;52.408;13.356;2023-04-24T15:41:22;1.70;;;1.25;;
45762;SDS011;37512;52.408;13.356;2023-04-24T15:45:23;1.27;;;0.90;;
45762;SDS011;37512;52.408;13.356;2023-04-24T15:49:25;1.98;;;1.00;;
45762;SDS011;37512;52.408;13.356;2023-04-24T15:53:27;1.33;;;0.80;;
45762;SDS011;37512;52.408;13.356;2023-04-24T15:57:28;1.63;;;1.00;;
45762;SDS011;37512;52.408;13.356;2023-04-24T16:01:30;3.85;;;0.98;;
45762;SDS011;37512;52.408;13.356;2023-04-24T16:05:32;5.82;;;1.42;;
45762;SDS011;37512;52.408;13.356;2023-04-24T16:09:34;1.10;;;0.73;;
45762;SDS011;37512;52.408;13.356;2023-04-24T16:13:36;0.90;;;0.70;;
45762;SDS011;37512;52.408;13.356;2023-04-24T16:17:37;3.53;;;1.13;;
45762;SDS011;37512;52.408;13.356;2023-04-24T16:21:39;1.17;;;0.77;;
45762;SDS011;37512;52.408;13.356;2023-04-24T16:25:41;1.38;;;1.00;;
45762;SDS011;37512;52.408;13.356;2023-04-24T16:29:42;1.77;;;1.10;;
45762;SDS011;37512;52.408;13.356;2023-04-24T16:33:44;2.95;;;1.10;;
45762;SDS011;37512;52.408;13.356;2023-04-24T16:37:45;1.40;;;1.27;;
45762;SDS011;37512;52.408;13.356;2023-04-24T16:41:47;3.45;;;1.30;;
45762;SDS011;37512;52.408;13.356;2023-04-24T16:45:50;4.68;;;0.80;;
45762;SDS011;37512;52.408;13.356;2023-04-24T16:49:51;3.97;;;1.05;;
45762;SDS011;37512;52.408;13.356;2023-04-24T16:53:53;0.90;;;0.77;;
45762;SDS011;37512;52.408;13.356;2023-04-24T16:57:55;2.78;;;0.93;;
45762;SDS011;37512;52.408;13.356;2023-04-24T17:01:56;1.55;;;0.80;;
45762;SDS011;37512;52.408;13.356;2023-04-24T17:05:58;2.00;;;0.80;;
45762;SDS011;37512;52.408;13.356;2023-04-24T17:09:59;1.60;;;1.08;;
45762;SDS011;37512;52.408;13.356;2023-04-24T17:14:01;1.25;;;0.70;;
45762;SDS011;37512;52.408;13.356;2023-04-24T17:18:02;2.00;;;1.00;;
45762;SDS011;37512;52.408;13.356;2023-04-24T17:22:05;1.73;;;1.00;;
45762;SDS011;37512;52.408;13.356;2023-04-24T17:26:07;0.50;;;0.50;;
45762;SDS011;37512;52.408;13.356;2023-04-24T17:30:10;0.70;;;0.70;;
45762;SDS011;37512;52.408;13.356;2023-04-24T17:34:12;1.98;;;0.98;;
45762;SDS011;37512;52.408;13.356;2023-04-24T17:38:14;8.55;;;0.80;;
45762;SDS011;37512;52.408;13.356;2023-04-24T17:42:15;1.17;;;0.75;;
45762;SDS011;37512;52.408;13.356;2023-04-24T17:46:17;0.98;;;0.70;;
45762;SDS011;37512;52.408;13.356;2023-04-24T17:50:19;1.10;;;0.77;;
45762;SDS011;37512;52.408;13.356;2023-04-24T17:54:20;2.40;;;1.20;;
45762;SDS011;37512;52.408;13.356;2023-04-24T17:58:22;2.20;;;1.30;;
45762;SDS011;37512;52.408;13.356;2023-04-24T18:02:24;6.43;;;1.38;;
45762;SDS011;37512;52.408;13.356;2023-04-24T18:06:26;0.95;;;0.80;;
45762;SDS011;37512;52.408;13.356;2023-04-24T18:10:29;1.70;;;1.27;;
45762;SDS011;37512;52.408;13.356;2023-04-24T18:14:36;1.15;;;1.05;;
45762;SDS011;37512;52.408;13.356;2023-04-24T18:18:37;2.20;;;1.13;;
45762;SDS011;37512;52.408;13.356;2023-04-24T18:22:39;1.35;;;0.80;;
45762;SDS011;37512;52.408;13.356;2023-04-24T18:26:41;1.77;;;0.85;;
45762;SDS011;37512;52.408;13.356;2023-04-24T18:30:42;0.73;;;0.60;;
45762;SDS011;37512;52.408;13.356;2023-04-24T18:34:44;0.45;;;0.45;;
45762;SDS011;37512;52.408;13.356;2023-04-24T18:38:45;1.13;;;0.82;;
45762;SDS011;37512;52.408;13.356;2023-04-24T18:42:47;0.50;;;0.50;;
45762;SDS011;37512;52.408;13.356;2023-04-24T18:46:50;0.68;;;0.68;;
45762;SDS011;37512;52.408;13.356;2023-04-24T18:50:51;0.40;;;0.40;;
45762;SDS011;37512;52.408;13.356;2023-04-24T18:54:53;0.85;;;0.65;;
45762;SDS011;37512;52.408;13.356;2023-04-24T18:58:54;1.60;;;0.70;;
45762;SDS011;37512;52.408;13.356;2023-04-24T19:02:56;0.50;;;0.50;;
45762;SDS011;37512;52.408;13.356;2023-04-24T19:06:58;0.70;;;0.65;;
45762;SDS011;37512;52.408;13.356;2023-04-24T19:10:59;0.60;;;0.52;;
45762;SDS011;37512;52.408;13.356;2023-04-24T19:15:01;0.80;;;0.63;;
45762;SDS011;37512;52.408;13.356;2023-04-24T19:19:02;0.85;;;0.68;;
45762;SDS011;37512;52.408;13.356;2023-04-24T19:23:05;0.52;;;0.50;;
45762;SDS011;37512;52.408;13.356;2023-04-24T19:27:07;1.00;;;0.80;;
45762;SDS011;37512;52.408;13.356;2023-04-24T19:31:08;1.20;;;0.90;;
45762;SDS011;37512;52.408;13.356;2023-04-24T19:35:10;0.75;;;0.65;;
45762;SDS011;37512;52.408;13.356;2023-04-24T19:39:12;2.60;;;0.80;;
45762;SDS011;37512;52.408;13.356;2023-04-24T19:43:13;1.52;;;1.08;;
45762;SDS011;37512;52.408;13.356;2023-04-24T19:47:15;1.40;;;1.30;;
45762;SDS011;37512;52.408;13.356;2023-04-24T19:51:16;1.55;;;0.95;;
45762;SDS011;37512;52.408;13.356;2023-04-24T19:55:18;1.98;;;1.33;;
45762;SDS011;37512;52.408;13.356;2023-04-24T19:59:20;3.40;;;1.75;;
45762;SDS011;37512;52.408;13.356;2023-04-24T20:03:21;5.03;;;2.47;;
45762;SDS011;37512;52.408;13.356;2023-04-24T20:07:33;2.60;;;1.30;;
45762;SDS011;37512;52.408;13.356;2023-04-24T20:11:35;3.08;;;1.60;;
45762;SDS011;37512;52.408;13.356;2023-04-24T20:15:37;2.83;;;1.35;;
45762;SDS011;37512;52.408;13.356;2023-04-24T20:19:38;2.83;;;1.98;;
45762;SDS011;37512;52.408;13.356;2023-04-24T20:23:41;3.00;;;1.77;;
45762;SDS011;37512;52.408;13.356;2023-04-24T20:27:42;2.35;;;1.77;;
45762;SDS011;37512;52.408;13.356;2023-04-24T20:31:44;1.98;;;1.00;;
45762;SDS011;37512;52.408;13.356;2023-04-24T20:35:45;4.13;;;1.77;;
45762;SDS011;37512;52.408;13.356;2023-04-24T20:39:47;4.20;;;2.40;;
45762;SDS011;37512;52.408;13.356;2023-04-24T20:43:51;3.65;;;2.17;;
45762;SDS011;37512;52.408;13.356;2023-04-24T20:47:54;4.57;;;1.77;;
45762;SDS011;37512;52.408;13.356;2023-04-24T20:51:56;3.50;;;2.10;;
45762;SDS011;37512;52.408;13.356;2023-04-24T20:55:59;3.22;;;1.90;;
45762;SDS011;37512;52.408;13.356;2023-04-24T21:00:01;6.05;;;2.08;;
45762;SDS011;37512;52.408;13.356;2023-04-24T21:04:06;5.45;;;1.95;;
45762;SDS011;37512;52.408;13.356;2023-04-24T21:08:08;3.80;;;2.03;;
45762;SDS011;37512;52.408;13.356;2023-04-24T21:12:09;3.90;;;2.42;;
45762;SDS011;37512;52.408;13.356;2023-04-24T21:16:11;2.65;;;1.50;;
45762;SDS011;37512;52.408;13.356;2023-04-24T21:20:12;12.32;;;3.50;;
45762;SDS011;37512;52.408;13.356;2023-04-24T21:24:14;4.20;;;2.60;;
45762;SDS011;37512;52.408;13.356;2023-04-24T21:28:16;4.72;;;2.10;;
45762;SDS011;37512;52.408;13.356;2023-04-24T21:32:18;5.43;;;2.95;;
45762;SDS011;37512;52.408;13.356;2023-04-24T21:36:20;3.85;;;2.45;;
45762;SDS011;37512;52.408;13.356;2023-04-24T21:40:22;3.40;;;2.63;;
45762;SDS011;37512;52.408;13.356;2023-04-24T21:44:24;5.20;;;2.80;;
45762;SDS011;37512;52.408;13.356;2023-04-24T21:48:26;6.57;;;2.78;;
45762;SDS011;37512;52.408;13.356;2023-04-24T21:52:27;3.40;;;2.08;;
45762;SDS011;37512;52.408;13.356;2023-04-24T21:56:28;4.18;;;2.22;;
45762;SDS011;37512;52.408;13.356;2023-04-24T22:00:30;5.68;;;2.80;;
45762;SDS011;37512;52.408;13.356;2023-04-24T22:04:33;4.60;;;2.80;;
45762;SDS011;37512;52.408;13.356;2023-04-24T22:08:35;1.38;;;1.27;;
45762;SDS011;37512;52.408;13.356;2023-04-24T22:12:37;3.70;;;2.97;;
45762;SDS011;37512;52.408;13.356;2023-04-24T22:16:38;6.20;;;2.45;;
45762;SDS011;37512;52.408;13.356;2023-04-24T22:20:42;4.95;;;3.00;;
45762;SDS011;37512;52.408;13.356;2023-04-24T22:24:44;6.90;;;2.95;;
45762;SDS011;37512;52.408;13.356;2023-04-24T22:28:46;5.97;;;3.40;;
45762;SDS011;37512;52.408;13.356;2023-04-24T22:32:48;7.88;;;3.38;;
45762;SDS011;37512;52.408;13.356;2023-04-24T22:36:50;4.00;;;2.50;;
45762;SDS011;37512;52.408;13.356;2023-04-24T22:40:51;4.45;;;2.78;;
45762;SDS011;37512;52.408;13.356;2023-04-24T22:44:53;4.70;;;3.30;;
45762;SDS011;37512;52.408;13.356;2023-04-24T22:48:55;4.38;;;2.97;;
45762;SDS011;37512;52.408;13.356;2023-04-24T22:52:58;6.15;;;3.55;;
45762;SDS011;37512;52.408;13.356;2023-04-24T22:57:00;4.57;;;2.92;;
45762;SDS011;37512;52.408;13.356;2023-04-24T23:01:03;6.95;;;2.83;;
45762;SDS011;37512;52.408;13.356;2023-04-24T23:05:05;7.18;;;3.03;;
45762;SDS011;37512;52.408;13.356;2023-04-24T23:09:07;4.65;;;2.30;;
45762;SDS011;37512;52.408;13.356;2023-04-24T23:13:09;9.57;;;3.38;;
45762;SDS011;37512;52.408;13.356;2023-04-24T23:17:10;6.10;;;3.28;;
45762;SDS011;37512;52.408;13.356;2023-04-24T23:21:12;4.68;;;2.33;;
45762;SDS011;37512;52.408;13.356;2023-04-24T23:25:13;5.40;;;2.90;;
45762;SDS011;37512;52.408;13.356;2023-04-24T23:29:16;3.90;;;2.33;;
45762;SDS011;37512;52.408;13.356;2023-04-24T23:33:17;5.07;;;2.90;;
45762;SDS011;37512;52.408;13.356;2023-04-24T23:37:18;3.75;;;2.40;;
45762;SDS011;37512;52.408;13.356;2023-04-24T23:41:21;2.20;;;1.17;;
45762;SDS011;37512;52.408;13.356;2023-04-24T23:45:22;4.13;;;2.78;;
45762;SDS011;37512;52.408;13.356;2023-04-24T23:49:24;4.63;;;2.05;;
45762;SDS011;37512;52.408;13.356;2023-04-24T23:53:25;3.25;;;1.88;;
45762;SDS011;37512;52.408;13.356;2023-04-24T23:57:27;4.80;;;2.13;;
